Time;durP1;ratioP1;P1;durP2;ratioP2;P2;SDS_P1;SDS_P2;PMS_P1;PMS_P2;Temp;Humidity;BMP_temperature;BMP_pressure;BME280_temperature;BME280_humidity;BME280_pressure;Samples;Min_cycle;Max_cycle;Signal;HPM_P1;HPM_P2
2023/05/28 00:01:09;;;;;;;13.25;7.63;;;;;;;20.08;100.00;100226.81;2102887;28;20147;-74
2023/05/28 00:02:30;;;;;;;12.57;7.20;;;;;;;20.08;100.00;100234.88;2105214;28;20040;-74
2023/05/28 00:03:53;;;;;;;16.20;7.05;;;;;;;20.09;100.00;100233.91;2102817;28;20048;-74
2023/05/28 00:05:14;;;;;;;16.17;7.93;;;;;;;20.09;100.00;100233.91;2096543;28;20044;-74
2023/05/28 00:06:36;;;;;;;16.15;7.13;;;;;;;20.09;100.00;100227.66;2107192;28;20058;-74
2023/05/28 00:08:00;;;;;;;13.63;7.30;;;;;;;20.08;100.00;100231.31;2101646;28;20040;-74
2023/05/28 00:09:23;;;;;;;13.75;7.65;;;;;;;20.08;100.00;100236.66;2099533;28;20541;-74
2023/05/28 00:10:44;;;;;;;13.50;7.45;;;;;;;20.09;100.00;100230.34;2106331;28;20518;-74
2023/05/28 00:12:07;;;;;;;15.15;7.40;;;;;;;20.08;100.00;100228.63;2093360;28;20041;-74
2023/05/28 00:13:29;;;;;;;15.82;8.02;;;;;;;20.06;100.00;100236.72;2103238;28;20054;-75
2023/05/28 00:14:51;;;;;;;16.80;8.30;;;;;;;20.05;100.00;100229.59;2111105;28;20517;-74
2023/05/28 00:16:13;;;;;;;13.45;7.60;;;;;;;20.06;100.00;100234.03;2111356;28;20533;-74
2023/05/28 00:17:35;;;;;;;20.13;8.25;;;;;;;20.05;100.00;100234.94;2111042;28;20043;-74
2023/05/28 00:18:57;;;;;;;16.38;7.85;;;;;;;20.03;100.00;100238.59;2111363;28;20043;-74
2023/05/28 00:20:19;;;;;;;15.68;7.38;;;;;;;20.05;100.00;100242.09;2110624;28;20055;-74
2023/05/28 00:21:41;;;;;;;14.35;8.25;;;;;;;20.04;100.00;100237.66;2108712;28;20051;-74
2023/05/28 00:23:05;;;;;;;17.75;8.45;;;;;;;20.03;100.00;100239.47;2086409;28;20101;-74
2023/05/28 00:24:28;;;;;;;12.65;7.53;;;;;;;20.03;100.00;100234.09;2097681;28;20078;-73
2023/05/28 00:25:51;;;;;;;16.63;8.25;;;;;;;20.01;100.00;100240.47;2094413;28;20040;-74
2023/05/28 00:27:12;;;;;;;14.85;7.82;;;;;;;20.00;100.00;100238.69;2103128;28;20504;-74
2023/05/28 00:28:35;;;;;;;14.05;6.78;;;;;;;19.99;100.00;100232.47;2111036;28;20105;-74
2023/05/28 00:29:56;;;;;;;15.50;7.15;;;;;;;20.00;100.00;100227.97;2105300;28;20040;-74
2023/05/28 00:31:18;;;;;;;17.58;7.25;;;;;;;19.99;100.00;100231.59;2105350;28;20095;-74
2023/05/28 00:32:41;;;;;;;17.50;7.63;;;;;;;20.00;100.00;100225.31;2110813;28;20055;-74
2023/05/28 00:34:02;;;;;;;15.55;7.38;;;;;;;20.01;100.00;100232.44;2111426;28;20507;-74
2023/05/28 00:35:25;;;;;;;16.80;8.27;;;;;;;20.03;100.00;100227.88;2113804;28;20054;-75
2023/05/28 00:36:47;;;;;;;12.95;7.50;;;;;;;20.02;100.00;100236.88;2103935;28;20051;-75
2023/05/28 00:38:10;;;;;;;14.93;7.63;;;;;;;20.01;100.00;100235.09;2102975;28;20143;-74
2023/05/28 00:39:32;;;;;;;13.82;8.13;;;;;;;20.00;100.00;100225.31;2100270;28;20096;-74
2023/05/28 00:40:55;;;;;;;15.20;7.90;;;;;;;19.99;100.00;100224.44;2091562;28;20651;-74
2023/05/28 00:42:18;;;;;;;16.65;7.40;;;;;;;19.99;100.00;100228.91;2095955;28;20063;-75
2023/05/28 00:43:40;;;;;;;14.15;7.43;;;;;;;19.98;100.00;100219.09;2094510;28;20135;-75
2023/05/28 00:45:02;;;;;;;13.80;7.80;;;;;;;19.97;100.00;100225.38;2099594;28;20168;-74
2023/05/28 00:46:25;;;;;;;16.67;7.60;;;;;;;19.96;100.00;100229.00;2102719;28;20036;-74
2023/05/28 00:47:50;;;;;;;11.75;6.90;;;;;;;19.97;100.00;100222.72;2103331;28;20060;-74
2023/05/28 00:49:14;;;;;;;13.77;7.70;;;;;;;19.97;100.00;100222.72;2089810;28;20033;-74
2023/05/28 00:50:38;;;;;;;12.85;6.97;;;;;;;19.98;100.00;100224.47;2116536;27;20403;-74
2023/05/28 00:52:01;;;;;;;13.63;7.28;;;;;;;19.98;100.00;100217.31;2102111;28;20514;-75
2023/05/28 00:53:26;;;;;;;13.23;7.25;;;;;;;19.99;100.00;100210.16;2094751;28;20160;-74
2023/05/28 00:54:48;;;;;;;16.27;7.93;;;;;;;19.99;100.00;100212.81;2100323;28;20066;-74
2023/05/28 00:56:12;;;;;;;15.77;8.27;;;;;;;20.00;100.00;100204.75;2102516;28;20048;-74
2023/05/28 00:57:36;;;;;;;12.45;6.85;;;;;;;20.00;100.00;100206.56;2095727;28;20071;-75
2023/05/28 00:58:59;;;;;;;18.38;7.38;;;;;;;20.01;100.00;100200.28;2094576;28;20043;-75
2023/05/28 01:00:22;;;;;;;13.40;7.40;;;;;;;20.02;100.00;100202.03;2116783;27;20051;-73
2023/05/28 01:01:46;;;;;;;12.02;6.72;;;;;;;20.03;100.00;100193.03;2099103;28;20067;-74
2023/05/28 01:03:09;;;;;;;15.52;7.35;;;;;;;20.04;100.00;100192.13;2116854;27;20043;-75
2023/05/28 01:04:31;;;;;;;13.65;6.70;;;;;;;20.04;100.00;100198.34;2107799;28;20060;-74
2023/05/28 01:05:54;;;;;;;13.23;7.40;;;;;;;20.05;100.00;100184.03;2093803;28;20052;-74
2023/05/28 01:07:15;;;;;;;13.55;7.00;;;;;;;20.06;100.00;100179.56;2091524;28;20117;-74
2023/05/28 01:08:40;;;;;;;16.83;7.60;;;;;;;20.06;100.00;100175.06;2114678;27;20278;-74
2023/05/28 01:10:02;;;;;;;18.98;7.43;;;;;;;20.07;100.00;100178.63;2109996;28;20182;-74
2023/05/28 01:11:26;;;;;;;15.68;6.57;;;;;;;20.07;100.00;100182.19;2094331;28;20511;-74
2023/05/28 01:12:50;;;;;;;13.80;6.88;;;;;;;20.07;100.00;100181.31;2104153;28;20055;-74
2023/05/28 01:14:15;;;;;;;13.02;6.97;;;;;;;20.08;100.00;100180.38;2110643;28;20051;-74
2023/05/28 01:15:37;;;;;;;16.67;6.88;;;;;;;20.08;100.00;100181.28;2103937;28;20465;-74
2023/05/28 01:17:00;;;;;;;13.95;7.03;;;;;;;20.11;100.00;100196.34;2101242;28;20044;-75
2023/05/28 01:18:24;;;;;;;15.10;6.32;;;;;;;20.11;100.00;100199.91;2095075;28;20147;-74
2023/05/28 01:19:47;;;;;;;14.55;7.55;;;;;;;20.12;100.00;100196.31;2108436;28;20086;-74
2023/05/28 01:21:10;;;;;;;14.02;6.85;;;;;;;20.14;100.00;100198.94;2100116;28;20078;-74
2023/05/28 01:22:37;;;;;;;11.75;6.47;;;;;;;20.16;100.00;100214.03;2103059;28;20044;-74
2023/05/28 01:24:02;;;;;;;13.45;6.80;;;;;;;20.15;100.00;100204.22;2103018;28;20102;-75
2023/05/28 01:25:24;;;;;;;13.40;7.05;;;;;;;20.15;100.00;100216.78;2107777;28;20043;-74
2023/05/28 01:26:47;;;;;;;14.75;7.10;;;;;;;20.16;100.00;100213.16;2102284;28;20058;-74
2023/05/28 01:28:12;;;;;;;16.00;7.13;;;;;;;20.17;100.00;100220.28;2105775;28;20031;-75
2023/05/28 01:29:35;;;;;;;14.00;7.03;;;;;;;20.17;100.00;100220.28;2101737;28;20584;-74
2023/05/28 01:30:57;;;;;;;16.10;7.00;;;;;;;20.18;100.00;100238.09;2099360;28;20052;-74
2023/05/28 01:32:19;;;;;;;11.45;7.13;;;;;;;20.20;100.00;100225.56;2099635;28;20075;-74
2023/05/28 01:33:43;;;;;;;13.23;6.50;;;;;;;20.19;100.00;100238.06;2100541;28;20658;-74
2023/05/28 01:35:08;;;;;;;12.52;6.55;;;;;;;20.21;100.00;100235.34;2101160;28;20660;-74
2023/05/28 01:36:37;;;;;;;16.48;7.40;;;;;;;20.23;100.00;100239.72;2092325;28;20056;-74
2023/05/28 01:38:03;;;;;;;15.00;6.22;;;;;;;20.26;100.00;100239.63;2100751;28;20427;-74
2023/05/28 01:39:31;;;;;;;13.38;6.35;;;;;;;20.28;100.00;100236.91;2100859;28;20051;-74
2023/05/28 01:40:55;;;;;;;12.77;6.93;;;;;;;20.30;100.00;100238.59;2100897;28;20044;-74
2023/05/28 01:42:18;;;;;;;15.63;6.53;;;;;;;20.31;100.00;100226.06;2099719;28;20051;-75
2023/05/28 01:43:42;;;;;;;16.48;6.95;;;;;;;20.32;100.00;100230.50;2097477;28;20523;-74
2023/05/28 01:45:06;;;;;;;14.05;6.03;;;;;;;20.33;100.00;100226.94;2099967;28;20398;-74
2023/05/28 01:46:32;;;;;;;12.50;5.80;;;;;;;20.34;100.00;100225.13;2117099;27;20047;-73
2023/05/28 01:47:54;;;;;;;12.48;5.90;;;;;;;20.37;100.00;100223.22;2103337;28;20492;-74
2023/05/28 01:49:18;;;;;;;13.57;6.00;;;;;;;20.37;100.00;100219.66;2090295;28;20113;-74
2023/05/28 01:50:40;;;;;;;10.65;5.80;;;;;;;20.37;100.00;100216.97;2107976;28;20040;-74
2023/05/28 01:52:04;;;;;;;11.25;6.10;;;;;;;20.37;100.00;100215.16;2097046;28;20045;-74
2023/05/28 01:53:25;;;;;;;13.25;5.78;;;;;;;20.38;100.00;100210.69;2091880;28;20060;-74
2023/05/28 01:54:50;;;;;;;12.63;6.45;;;;;;;20.37;100.00;100217.84;2097409;28;20075;-75
2023/05/28 01:56:11;;;;;;;14.27;5.82;;;;;;;20.38;100.00;100216.03;2093628;28;20048;-74
2023/05/28 01:57:33;;;;;;;12.43;6.20;;;;;;;20.38;100.00;100211.56;2088019;28;20047;-74
2023/05/28 01:58:56;;;;;;;12.48;5.65;;;;;;;20.38;100.00;100213.38;2103921;28;20039;-74
2023/05/28 02:00:18;;;;;;;9.90;5.45;;;;;;;20.38;100.00;100219.59;2099769;28;20054;-74
2023/05/28 02:01:41;;;;;;;17.42;6.00;;;;;;;20.40;100.00;100230.28;2100384;28;20138;-74
2023/05/28 02:03:05;;;;;;;11.20;7.07;;;;;;;20.40;100.00;100238.34;2101763;28;20055;-75
2023/05/28 02:04:27;;;;;;;16.02;5.78;;;;;;;20.39;100.00;100234.78;2107578;28;20047;-74
2023/05/28 02:05:48;;;;;;;13.02;5.80;;;;;;;20.41;100.00;100232.03;2102779;28;20040;-75
2023/05/28 02:07:12;;;;;;;12.73;5.85;;;;;;;20.42;100.00;100241.81;2106326;28;20039;-74
2023/05/28 02:08:33;;;;;;;11.93;6.15;;;;;;;20.42;100.00;100240.03;2102216;28;20087;-74
2023/05/28 02:09:58;;;;;;;16.10;7.03;;;;;;;20.44;100.00;100239.97;2097310;28;20042;-74
2023/05/28 02:11:19;;;;;;;12.30;5.32;;;;;;;20.45;100.00;100239.94;2107923;28;20039;-74
2023/05/28 02:12:42;;;;;;;13.98;5.80;;;;;;;20.44;100.00;100240.84;2107449;28;20073;-74
2023/05/28 02:14:03;;;;;;;13.38;5.45;;;;;;;20.45;100.00;100234.56;2096268;28;20113;-74
2023/05/28 02:15:26;;;;;;;12.02;5.55;;;;;;;20.46;100.00;100233.66;2093466;28;20048;-74
2023/05/28 02:16:48;;;;;;;11.95;5.45;;;;;;;20.45;100.00;100226.53;2098563;28;20056;-74
2023/05/28 02:18:10;;;;;;;18.80;5.97;;;;;;;20.43;100.00;100228.38;2116636;28;20092;-75
2023/05/28 02:19:32;;;;;;;11.63;5.30;;;;;;;20.41;100.00;100230.25;2098799;28;20134;-74
2023/05/28 02:20:55;;;;;;;14.07;4.90;;;;;;;20.41;100.00;100232.94;2096202;28;20060;-74
2023/05/28 02:22:17;;;;;;;12.88;5.28;;;;;;;20.40;100.00;100238.34;2093937;28;20144;-75
2023/05/28 02:23:39;;;;;;;11.18;5.55;;;;;;;20.39;100.00;100232.09;2090442;28;20048;-74
2023/05/28 02:25:03;;;;;;;14.35;5.78;;;;;;;20.39;100.00;100241.94;2099405;28;20070;-75
2023/05/28 02:26:25;;;;;;;13.30;5.70;;;;;;;20.38;100.00;100218.72;2094002;28;20072;-75
2023/05/28 02:27:48;;;;;;;12.20;5.78;;;;;;;20.37;100.00;100228.56;2090912;28;20041;-75
2023/05/28 02:29:09;;;;;;;11.10;5.82;;;;;;;20.37;100.00;100231.25;2095030;28;20052;-74
2023/05/28 02:30:32;;;;;;;13.10;5.78;;;;;;;20.36;100.00;100232.19;2110490;28;20048;-74
2023/05/28 02:31:53;;;;;;;15.27;5.80;;;;;;;20.34;100.00;100235.84;2101954;28;20052;-75
2023/05/28 02:33:16;;;;;;;14.30;6.28;;;;;;;20.34;100.00;100234.06;2096484;28;20055;-75
2023/05/28 02:34:41;;;;;;;13.10;6.80;;;;;;;20.33;100.00;100252.88;2102200;28;20460;-74
2023/05/28 02:36:05;;;;;;;11.88;5.50;;;;;;;20.32;100.00;100253.75;2107137;28;20515;-74
2023/05/28 02:37:28;;;;;;;13.18;6.15;;;;;;;20.30;100.00;100249.31;2102358;28;20048;-74
2023/05/28 02:38:50;;;;;;;11.40;5.70;;;;;;;20.31;100.00;100252.88;2102111;28;20074;-75
2023/05/28 02:40:14;;;;;;;12.13;5.88;;;;;;;20.32;100.00;100257.31;2099351;28;20454;-75
2023/05/28 02:41:36;;;;;;;14.82;6.00;;;;;;;20.30;100.00;100254.69;2099819;28;20055;-74
2023/05/28 02:42:58;;;;;;;12.68;6.50;;;;;;;20.32;100.00;100268.03;2096187;28;20514;-75
2023/05/28 02:44:21;;;;;;;11.23;5.47;;;;;;;20.32;100.00;100270.72;2101096;28;20044;-75
2023/05/28 02:45:45;;;;;;;11.20;5.38;;;;;;;20.33;100.00;100268.94;2099665;28;20045;-75
2023/05/28 02:47:07;;;;;;;15.15;6.35;;;;;;;20.34;100.00;100271.59;2096421;28;20044;-75
2023/05/28 02:48:30;;;;;;;16.08;6.20;;;;;;;20.34;100.00;100238.53;2096976;28;20101;-75
2023/05/28 02:49:52;;;;;;;14.40;6.05;;;;;;;20.33;100.00;100275.19;2091442;28;20102;-75
2023/05/28 02:51:14;;;;;;;11.98;6.30;;;;;;;20.34;100.00;100271.59;2098506;28;20151;-74
2023/05/28 02:52:43;;;;;;;13.50;5.85;;;;;;;20.33;100.00;100272.50;2106795;28;20548;-75
2023/05/28 02:54:04;;;;;;;9.27;5.65;;;;;;;20.34;100.00;100266.22;2102110;28;20131;-75
2023/05/28 02:55:28;;;;;;;13.48;5.55;;;;;;;20.34;100.00;100274.28;2099711;28;20052;-74
2023/05/28 02:56:49;;;;;;;13.98;6.70;;;;;;;20.35;100.00;100267.97;2090977;28;20040;-75
2023/05/28 02:58:12;;;;;;;11.43;5.35;;;;;;;20.36;100.00;100272.41;2090904;28;20037;-75
2023/05/28 02:59:34;;;;;;;11.88;5.82;;;;;;;20.36;100.00;100261.66;2090812;28;20048;-74
2023/05/28 03:00:56;;;;;;;12.73;5.32;;;;;;;20.36;100.00;100269.72;2097015;28;20054;-74
2023/05/28 03:02:18;;;;;;;12.07;6.32;;;;;;;20.38;100.00;100272.34;2096818;28;20047;-74
2023/05/28 03:03:40;;;;;;;14.10;6.28;;;;;;;20.37;100.00;100273.28;2097189;28;20059;-75
2023/05/28 03:05:03;;;;;;;13.25;5.88;;;;;;;20.37;100.00;100273.28;2093455;28;20044;-74
2023/05/28 03:06:26;;;;;;;;;;;;;;;20.35;100.00;100277.84;2098740;28;20521;-74
2023/05/28 03:07:49;;;;;;;11.75;5.93;;;;;;;20.34;100.00;100282.31;2098262;28;20363;-74
2023/05/28 03:09:11;;;;;;;17.10;6.55;;;;;;;20.35;100.00;100270.63;2092641;28;20111;-74
2023/05/28 03:10:34;;;;;;;16.95;6.22;;;;;;;20.37;100.00;100279.53;2097227;28;20493;-75
2023/05/28 03:11:58;;;;;;;10.38;6.28;;;;;;;20.38;100.00;100270.56;2099659;28;20048;-75
2023/05/28 03:13:19;;;;;;;14.55;5.50;;;;;;;20.40;100.00;100282.13;2091655;28;20768;-74
2023/05/28 03:14:42;;;;;;;18.15;6.25;;;;;;;20.43;100.00;100275.75;2101157;28;20044;-75
2023/05/28 03:16:05;;;;;;;12.27;5.88;;;;;;;20.44;100.00;100282.88;2100818;28;20048;-75
2023/05/28 03:17:30;;;;;;;10.65;6.07;;;;;;;20.45;100.00;100285.50;2109720;28;20051;-75
2023/05/28 03:18:51;;;;;;;11.18;5.82;;;;;;;20.48;100.00;100281.88;2109957;28;20069;-75
2023/05/28 03:20:14;;;;;;;;;;;;;;;20.47;100.00;100283.69;2102441;28;20044;-74
2023/05/28 03:21:36;;;;;;;12.10;5.15;;;;;;;20.46;100.00;100292.63;2105420;28;19935;-74
2023/05/28 03:22:59;;;;;;;12.32;4.95;;;;;;;20.49;100.00;100291.66;2094114;28;20048;-74
2023/05/28 03:24:22;;;;;;;12.60;5.75;;;;;;;20.49;100.00;100281.78;2100028;28;20138;-74
2023/05/28 03:25:49;;;;;;;14.75;6.20;;;;;;;20.50;100.00;100280.00;2101901;28;20052;-74
2023/05/28 03:27:12;;;;;;;12.25;5.55;;;;;;;20.51;100.00;100281.75;2099538;28;20044;-74
2023/05/28 03:28:34;;;;;;;12.55;5.90;;;;;;;20.52;100.00;100286.19;2099884;28;20442;-76
2023/05/28 03:30:15;;;;;;;10.90;5.13;;;;;;;20.51;100.00;100273.72;2122178;27;20158;-75
2023/05/28 03:31:44;;;;;;;10.63;4.88;;;;;;;20.52;100.00;100291.56;2105993;28;20122;-74
2023/05/28 03:33:08;;;;;;;12.68;5.82;;;;;;;20.51;100.00;100284.44;2099711;28;20048;-75
2023/05/28 03:34:29;;;;;;;11.70;5.75;;;;;;;20.51;100.00;100285.31;2103526;28;20075;-75
2023/05/28 03:35:52;;;;;;;13.45;6.07;;;;;;;20.53;100.00;100296.88;2101246;28;20117;-74
2023/05/28 03:37:15;;;;;;;11.10;5.03;;;;;;;20.53;100.00;100293.31;2109249;28;20047;-75
2023/05/28 03:38:36;;;;;;;15.02;5.95;;;;;;;20.56;100.00;100303.94;2103387;28;20044;-74
2023/05/28 03:39:59;;;;;;;10.63;4.93;;;;;;;20.58;100.00;100318.19;2096693;28;20053;-75
2023/05/28 03:41:22;;;;;;;12.55;5.30;;;;;;;20.60;100.00;100311.84;2108241;28;20130;-74
2023/05/28 03:42:45;;;;;;;12.07;5.60;;;;;;;20.61;100.00;100316.25;2094886;28;20502;-75
2023/05/28 03:44:06;;;;;;;10.88;5.10;;;;;;;20.62;100.00;100315.34;2095539;28;20048;-74
2023/05/28 03:45:28;;;;;;;11.15;5.57;;;;;;;20.63;100.00;100317.09;2100975;28;20052;-74
2023/05/28 03:46:49;;;;;;;11.65;5.07;;;;;;;20.64;100.00;100329.59;2103071;28;20044;-75
2023/05/28 03:48:12;;;;;;;10.80;5.10;;;;;;;20.65;100.00;100325.09;2097913;28;20059;-75
2023/05/28 03:49:34;;;;;;;13.32;5.55;;;;;;;20.65;100.00;100325.97;2098826;28;21057;-75
2023/05/28 03:50:56;;;;;;;10.68;5.10;;;;;;;20.65;100.00;100334.03;2096488;28;20036;-75
2023/05/28 03:52:18;;;;;;;8.57;4.80;;;;;;;20.65;100.00;100342.06;2103360;28;20063;-75
2023/05/28 03:53:50;;;;;;;13.95;5.28;;;;;;;20.64;100.00;100337.63;2097247;28;20057;-75
2023/05/28 03:55:13;;;;;;;15.25;5.28;;;;;;;20.64;100.00;100345.69;2100195;28;20570;-75
2023/05/28 03:56:36;;;;;;;11.10;5.30;;;;;;;20.65;100.00;100342.06;2106347;28;20052;-74
2023/05/28 03:58:00;;;;;;;12.68;4.85;;;;;;;20.65;100.00;100342.06;2094164;28;20105;-75
2023/05/28 03:59:21;;;;;;;13.80;5.90;;;;;;;20.66;100.00;100338.47;2108064;28;20043;-75
2023/05/28 04:00:43;;;;;;;10.57;5.47;;;;;;;20.66;100.00;100337.59;2095168;28;20041;-75
2023/05/28 04:02:05;;;;;;;13.07;4.85;;;;;;;20.68;100.00;100338.41;2100399;28;20445;-75
2023/05/28 04:03:27;;;;;;;11.30;4.88;;;;;;;20.68;100.00;100336.59;2106835;28;20043;-74
2023/05/28 04:04:49;;;;;;;9.15;5.10;;;;;;;20.70;100.00;100341.91;2108593;28;20059;-74
2023/05/28 04:06:11;;;;;;;11.23;5.75;;;;;;;20.72;100.00;100340.06;2111348;28;20664;-75
2023/05/28 04:07:34;;;;;;;11.27;4.97;;;;;;;20.72;100.00;100337.38;2103709;28;20089;-75
2023/05/28 04:08:56;;;;;;;17.38;5.50;;;;;;;20.72;100.00;100341.88;2099786;28;20059;-75
2023/05/28 04:10:18;;;;;;;14.35;5.32;;;;;;;20.73;100.00;100344.50;2099129;28;20044;-74
2023/05/28 04:11:41;;;;;;;11.32;5.10;;;;;;;20.74;100.00;100345.38;2097781;28;20051;-75
2023/05/28 04:13:08;;;;;;;16.65;5.40;;;;;;;20.73;100.00;100354.38;2093289;28;20784;-75
2023/05/28 04:14:29;;;;;;;15.75;5.88;;;;;;;20.73;100.00;100349.88;2094626;28;20087;-75
2023/05/28 04:15:52;;;;;;;16.92;5.35;;;;;;;20.73;100.00;100357.03;2097384;28;20052;-75
2023/05/28 04:17:15;;;;;;;12.50;5.28;;;;;;;20.72;100.00;100366.00;2098013;28;20052;-74
2023/05/28 04:18:36;;;;;;;12.65;5.57;;;;;;;20.71;100.00;100357.09;2103073;28;20052;-74
2023/05/28 04:19:59;;;;;;;12.88;6.05;;;;;;;20.72;100.00;100352.59;2094359;28;20083;-75
2023/05/28 04:21:22;;;;;;;13.25;6.20;;;;;;;20.71;100.00;100365.13;2094514;28;20067;-75
2023/05/28 04:22:44;;;;;;;11.75;5.35;;;;;;;20.74;100.00;100364.19;2100426;28;20380;-75
2023/05/28 04:24:05;;;;;;;14.43;6.15;;;;;;;20.74;100.00;100362.38;2111463;28;20102;-75
2023/05/28 04:25:29;;;;;;;15.38;5.82;;;;;;;20.72;100.00;100358.84;2101970;28;20588;-76
2023/05/28 04:26:53;;;;;;;17.08;5.75;;;;;;;20.72;100.00;100363.34;2105440;28;20101;-74
2023/05/28 04:28:15;;;;;;;13.68;5.60;;;;;;;20.71;100.00;100359.78;2103121;28;20036;-74
2023/05/28 04:29:38;;;;;;;14.18;6.20;;;;;;;20.73;100.00;100365.09;2094459;28;20087;-75
2023/05/28 04:31:01;;;;;;;17.00;6.55;;;;;;;20.74;100.00;100361.50;2093763;28;20051;-75
2023/05/28 04:32:24;;;;;;;17.83;6.10;;;;;;;20.74;100.00;100366.84;2100555;28;20163;-75
2023/05/28 04:33:46;;;;;;;14.23;5.70;;;;;;;20.74;100.00;100367.72;2092137;28;20083;-75
2023/05/28 04:35:10;;;;;;;17.35;5.60;;;;;;;20.75;100.00;100357.84;2105890;28;20058;-75
2023/05/28 04:36:33;;;;;;;12.65;5.90;;;;;;;20.76;100.00;100367.66;2094991;28;20089;-75
2023/05/28 04:37:56;;;;;;;11.93;5.65;;;;;;;20.75;100.00;100363.22;2098329;28;20502;-74
2023/05/28 04:39:18;;;;;;;15.70;6.70;;;;;;;20.76;100.00;100360.50;2099907;28;20380;-74
2023/05/28 04:40:40;;;;;;;12.60;5.75;;;;;;;20.78;100.00;100364.00;2108851;28;20047;-74
2023/05/28 04:42:07;;;;;;;13.60;6.22;;;;;;;20.79;100.00;100360.41;2102327;28;20039;-74
2023/05/28 04:43:29;;;;;;;12.68;5.97;;;;;;;20.77;100.00;100354.19;2094840;28;20483;-75
2023/05/28 04:44:53;;;;;;;16.38;5.88;;;;;;;20.78;100.00;100350.59;2094206;28;20049;-75
2023/05/28 04:46:16;;;;;;;18.33;6.10;;;;;;;20.79;100.00;100343.44;2098996;28;20040;-74
2023/05/28 04:47:37;;;;;;;15.50;6.47;;;;;;;20.80;100.00;100339.81;2104080;28;20051;-75
2023/05/28 04:49:00;;;;;;;15.52;5.95;;;;;;;20.82;100.00;100344.19;2102583;28;20054;-75
2023/05/28 04:50:22;;;;;;;15.63;6.03;;;;;;;20.84;100.00;100336.97;2108213;28;20449;-75
2023/05/28 04:51:46;;;;;;;13.38;6.20;;;;;;;20.85;100.00;100333.38;2093788;28;20466;-75
2023/05/28 04:53:07;;;;;;;16.67;6.22;;;;;;;20.88;100.00;100321.63;2099135;28;20098;-74
2023/05/28 04:54:30;;;;;;;13.15;6.15;;;;;;;20.87;100.00;100327.97;2099895;28;20475;-74
2023/05/28 04:55:51;;;;;;;14.88;6.25;;;;;;;20.87;100.00;100331.50;2106347;28;20469;-74
2023/05/28 04:57:17;;;;;;;14.85;6.05;;;;;;;20.90;100.00;100323.34;2100235;28;20074;-74
2023/05/28 04:58:38;;;;;;;16.63;6.82;;;;;;;20.92;100.00;100326.00;2101862;28;20044;-75
2023/05/28 05:00:03;;;;;;;13.82;5.85;;;;;;;20.92;100.00;100313.44;2097193;28;20440;-74
2023/05/28 05:01:27;;;;;;;14.38;6.03;;;;;;;20.94;100.00;100321.44;2099826;28;20031;-74
2023/05/28 05:02:50;;;;;;;12.18;6.10;;;;;;;20.94;100.00;100311.56;2092138;28;20043;-75
2023/05/28 05:04:11;;;;;;;17.63;6.95;;;;;;;20.93;100.00;100307.16;2097696;28;20404;-74
2023/05/28 05:05:34;;;;;;;14.85;6.25;;;;;;;20.95;100.00;100301.72;2099124;28;21611;-74
2023/05/28 05:06:57;;;;;;;15.88;5.93;;;;;;;20.96;100.00;100315.09;2099957;28;20062;-75
2023/05/28 05:08:18;;;;;;;13.93;5.88;;;;;;;20.99;100.00;100320.38;2095791;28;20106;-74
2023/05/28 05:09:42;;;;;;;14.63;5.50;;;;;;;20.99;100.00;100324.84;2091428;28;20068;-74
2023/05/28 05:11:06;;;;;;;13.88;6.50;;;;;;;21.02;100.00;100327.41;2098998;28;20044;-74
2023/05/28 05:12:29;;;;;;;13.13;6.03;;;;;;;21.04;100.00;100321.06;2096490;28;20114;-75
2023/05/28 05:13:51;;;;;;;15.85;6.35;;;;;;;21.07;100.00;100320.94;2100411;28;20143;-75
2023/05/28 05:15:14;;;;;;;15.20;5.90;;;;;;;21.12;100.00;100333.38;2108504;28;20036;-75
2023/05/28 05:16:37;;;;;;;16.30;6.60;;;;;;;21.16;100.00;100322.50;2101284;28;20040;-74
2023/05/28 05:18:00;;;;;;;12.18;5.90;;;;;;;21.21;100.00;100328.56;2099127;28;20416;-74
2023/05/28 05:19:23;;;;;;;15.43;5.82;;;;;;;21.24;100.00;100331.16;2092838;28;20056;-75
2023/05/28 05:20:46;;;;;;;13.10;5.78;;;;;;;21.28;100.00;100330.09;2100782;28;20575;-75
2023/05/28 05:22:08;;;;;;;12.05;5.95;;;;;;;21.32;100.00;100334.47;2101683;28;20144;-74
2023/05/28 05:23:31;;;;;;;13.05;5.75;;;;;;;21.34;100.00;100329.88;2097199;28;20078;-74
2023/05/28 05:24:53;;;;;;;13.95;6.10;;;;;;;21.35;100.00;100336.13;2097700;28;20039;-74
2023/05/28 05:26:16;;;;;;;13.07;6.40;;;;;;;21.37;100.00;100329.78;2098035;28;20044;-75
2023/05/28 05:27:40;;;;;;;14.23;5.82;;;;;;;21.40;100.00;100326.97;2094186;28;20090;-75
2023/05/28 05:29:02;;;;;;;13.90;5.78;;;;;;;21.42;100.00;100326.94;2091504;28;20072;-74
2023/05/28 05:30:24;;;;;;;14.13;5.13;;;;;;;21.44;100.00;100328.66;2098722;28;20515;-75
2023/05/28 05:31:46;;;;;;;13.07;5.88;;;;;;;21.44;100.00;100323.28;2092892;28;20105;-75
2023/05/28 05:33:09;;;;;;;15.18;5.38;;;;;;;21.45;100.00;100319.66;2090534;28;20630;-75
2023/05/28 05:34:50;;;;;;;10.70;6.03;;;;;;;21.46;100.00;100321.38;2088040;28;20064;-75
2023/05/28 05:36:20;;;;;;;12.40;5.70;;;;;;;21.45;100.00;100311.59;2095269;28;20037;-75
2023/05/28 05:38:19;;;;;;;18.30;5.53;;;;;;;21.45;100.00;100308.91;2094142;28;20044;-74
2023/05/28 05:39:57;;;;;;;11.85;5.88;;;;;;;21.45;100.00;100327.72;2107363;28;20385;-75
2023/05/28 05:41:46;;;;;;;12.75;5.55;;;;;;;21.47;100.00;100320.47;2095308;28;20040;-75
2023/05/28 05:43:19;;;;;;;16.23;6.13;;;;;;;21.51;100.00;100320.38;2094948;28;20088;-75
2023/05/28 05:44:41;;;;;;;16.02;6.22;;;;;;;21.53;100.00;100316.66;2091624;28;20061;-75
2023/05/28 05:46:04;;;;;;;14.15;6.00;;;;;;;21.57;100.00;100317.44;2091980;28;20064;-75
2023/05/28 05:47:26;;;;;;;12.95;5.90;;;;;;;21.62;100.00;100310.09;2095040;28;20073;-74
2023/05/28 05:48:50;;;;;;;12.40;5.85;;;;;;;21.66;100.00;100317.97;2090837;28;20064;-74
2023/05/28 05:50:12;;;;;;;14.30;5.50;;;;;;;21.69;100.00;100314.31;2087705;28;20056;-74
2023/05/28 05:51:34;;;;;;;;;;;;;;;21.69;100.00;100311.63;2083437;28;20638;-75
2023/05/28 05:52:59;;;;;;;11.45;5.25;;;;;;;21.69;100.00;100311.63;2082269;28;20373;-74
2023/05/28 05:54:20;;;;;;;15.65;4.97;;;;;;;21.72;100.00;100311.53;2085668;28;20045;-74
2023/05/28 05:55:43;;;;;;;11.30;5.25;;;;;;;21.77;100.00;100309.53;2091997;28;20047;-75
2023/05/28 05:57:07;;;;;;;16.05;5.60;;;;;;;21.81;100.00;100311.16;2087784;28;20405;-74
2023/05/28 05:58:32;;;;;;;19.75;6.22;;;;;;;21.84;100.00;100303.00;2097127;28;20138;-74
2023/05/28 05:59:55;;;;;;;12.35;5.28;;;;;;;21.84;100.00;100303.00;2089083;28;20064;-75
2023/05/28 06:01:17;;;;;;;14.25;5.88;;;;;;;21.87;100.00;100303.75;2090013;28;20109;-75
2023/05/28 06:02:40;;;;;;;16.50;5.78;;;;;;;21.90;100.00;100297.38;2089674;28;20143;-75
2023/05/28 06:04:22;;;;;;;16.50;5.60;;;;;;;21.90;100.00;100299.19;2102834;28;20047;-75
2023/05/28 06:06:23;;;;;;;14.13;5.63;;;;;;;21.93;100.00;100296.38;2091432;28;20052;-74
2023/05/28 06:08:05;;;;;;;16.38;6.15;;;;;;;21.99;100.00;100304.25;2104856;28;20043;-75
2023/05/28 06:09:35;;;;;;;13.65;5.78;;;;;;;22.01;100.00;100303.25;2093033;28;20052;-75
2023/05/28 06:11:10;;;;;;;14.65;5.10;;;;;;;22.02;100.00;100305.00;2092186;28;20164;-74
2023/05/28 06:12:33;;;;;;;18.35;6.00;;;;;;;22.02;100.00;100306.81;2084934;28;20064;-74
2023/05/28 06:14:01;;;;;;;16.05;5.70;;;;;;;22.03;100.00;100306.75;2090428;28;20055;-74
2023/05/28 06:15:24;;;;;;;15.60;5.45;;;;;;;22.07;100.00;100310.19;2086745;28;20048;-75
2023/05/28 06:16:48;;;;;;;12.15;5.85;;;;;;;22.11;100.00;100312.72;2093595;28;20082;-75
2023/05/28 06:18:11;;;;;;;11.63;4.97;;;;;;;22.13;100.00;100302.75;2091186;28;20040;-74
2023/05/28 06:19:35;;;;;;;9.45;5.20;;;;;;;22.14;100.00;100315.28;2093628;28;20067;-75
2023/05/28 06:20:57;;;;;;;14.18;5.63;;;;;;;22.14;100.00;100315.28;2096951;28;20059;-75